Share

Shults, OK

Fuller Farms (KOKHAWOR1) Elev 472 ft | 33.82 °N, 94.71 °W | Change Station

Current weather conditions updated 1 second ago

Scattered Clouds
Scattered Clouds
58.7 °F
Feels Like 58.7 °F
N
0.0
Wind Variable Wind from East
Gusts 0.0 mph
Sunrise 6:45 AM
Sunset 7:51 PM
Moon Waning Gibbous

Tomorrow is forecast to be Much Warmer than today.

Pressure 30.17 in
Visibility 10.0 miles
Clouds Scattered Clouds 9500 ft
Dew Point 52 °F
Humidity 78%
Rainfall 0.00 in
Snow Depth Not available.
UV 0 out of 16
Pollen 9.00 out of 12
Air Quality Not available.
Flu Activity Regional
METAR K4O4 180041Z AUTO 00000KT 10SM SCT095 16/07 A3017 RMK AO2

More Conditions Fewer Conditions

Pressure 30.17 in
Visibility 10.0 miles
Clouds Scattered Clouds 9500 ft
Dew Point 52 °F
Humidity 78%
Rainfall 0.00 in
Snow Depth Not available.
UV 0 out of 16
Pollen 9.00 out of 12
Air Quality Not available.
Flu Activity Regional
METAR K4O4 180041Z AUTO 00000KT 10SM SCT095 16/07 A3017 RMK AO2

More Conditions Fewer Conditions

10-Day Forecast

Almanac

Astronomy

Apr. 17, 2014 Rise Set
Actual Time 6:45 AM CDT 7:51 PM CDT
Civil Twilight 6:19 AM CDT 8:17 PM CDT
Nautical Twilight 5:49 AM CDT 8:48 PM CDT
Astronomical Twilight 5:17 AM CDT 9:20 PM CDT
Moon 10:32 PM CDT (4/17) 8:23 AM CDT (4/17)
Length of Visible Light 13h 57m
Length of Day
13h 06m
Tomorrow will be 1m 57s longer.
Waning Gibbous, 91% of the Moon is Illuminated
Today
Waning Gibbous
Apr 22
Last Quarter
Apr 29
New
May 6
First Quarter
May 14
Full

Today's Extremes

State Highs State Lows

Community

  • Morning Light
    Morning Light
  • New Day
    New Day
  • Lake Michigan Sunrise
    Lake Michigan Sunrise
  • sunset from izmir, narlıdere
    sunset from izmir, narlıdere
  • oregon cherry
    oregon cherry

WunderPhotos

Upload Photos

1,702,189 photos uploaded!

WunderBlogs® & News

Nearby

Snow Depth

Station Depth Elevation
No new snow has been reported.

Coastal Water Temperatures

Place Temperature
No Stations Reporting

Earthquake Activity

City Distance Mag. Time & Date
No recent earthquake activity has been reported nearby.
Minimum magnitude displayed is 2.5.

Nearby Weather Stations

Station Location Temp. Dew Point Humidity Wind Precip. Elev Updated Type
Fuller Farms, Haworth, OK 58.7 °F 52 °F 78% East  at  0.0 mph 0.00 in / hr 472 ft 7:42 PM CDT Rapid Fire
Ron Baker WW5G Little River, Broken Bow, OK 62.8 °F 31 °F 30% North  at  0.0 mph 0.00 in / hr 367 ft 7:42 PM CDT Rapid Fire
RAWS BROKEN BOW OK, Broken Bow, OK 63 °F 46 °F 54% SW  at  1 mph 0.00 in / hr 500 ft 7:02 PM CDT MADIS
HADS MOUNTAIN FORK RIVER AT BROKEN BO OK, Eagletown, OK 63 °F 45 °F 51% South  at  1 mph 0.00 in / hr 648 ft 6:00 PM CDT MADIS
HADS LITTLE RIVER AT PINE CREEK DAM N OK, Rufe, OK 64 °F 46 °F 53% SSE  at  4 mph 0.00 in / hr 490 ft 6:00 PM CDT MADIS

Show More Stations Show Fewer Stations

What do you think?

We're not finished. Please let us know what you like, what you don't like, and what you are still missing.